sensor_id;sensor_type;location;lat;lon;timestamp;P1;durP1;ratioP1;P2;durP2;ratioP2
22965;SDS011;11649;48.090;9.754;2024-01-30T00:00:24;14.45;;;8.70;;
22965;SDS011;11649;48.090;9.754;2024-01-30T00:02:51;21.77;;;9.68;;
22965;SDS011;11649;48.090;9.754;2024-01-30T00:05:17;19.63;;;9.93;;
22965;SDS011;11649;48.090;9.754;2024-01-30T00:07:44;15.93;;;8.18;;
22965;SDS011;11649;48.090;9.754;2024-01-30T00:10:11;16.50;;;9.45;;
22965;SDS011;11649;48.090;9.754;2024-01-30T00:12:38;15.63;;;8.35;;
22965;SDS011;11649;48.090;9.754;2024-01-30T00:15:05;16.83;;;8.40;;
22965;SDS011;11649;48.090;9.754;2024-01-30T00:17:35;14.30;;;7.82;;
22965;SDS011;11649;48.090;9.754;2024-01-30T00:20:03;14.48;;;8.02;;
22965;SDS011;11649;48.090;9.754;2024-01-30T00:22:31;13.73;;;8.05;;
22965;SDS011;11649;48.090;9.754;2024-01-30T00:24:58;17.13;;;7.68;;
22965;SDS011;11649;48.090;9.754;2024-01-30T00:27:25;11.93;;;7.13;;
22965;SDS011;11649;48.090;9.754;2024-01-30T00:29:53;14.75;;;8.38;;
22965;SDS011;11649;48.090;9.754;2024-01-30T00:32:20;14.10;;;7.70;;
22965;SDS011;11649;48.090;9.754;2024-01-30T00:34:47;14.80;;;8.13;;
22965;SDS011;11649;48.090;9.754;2024-01-30T00:37:14;14.45;;;8.18;;
22965;SDS011;11649;48.090;9.754;2024-01-30T00:39:41;14.18;;;8.68;;
22965;SDS011;11649;48.090;9.754;2024-01-30T00:42:08;14.38;;;7.93;;
22965;SDS011;11649;48.090;9.754;2024-01-30T00:44:35;17.13;;;8.43;;
22965;SDS011;11649;48.090;9.754;2024-01-30T00:47:04;15.52;;;8.32;;
22965;SDS011;11649;48.090;9.754;2024-01-30T00:49:31;13.75;;;8.15;;
22965;SDS011;11649;48.090;9.754;2024-01-30T00:51:59;13.52;;;8.13;;
22965;SDS011;11649;48.090;9.754;2024-01-30T00:54:26;13.13;;;7.38;;
22965;SDS011;11649;48.090;9.754;2024-01-30T00:56:52;11.38;;;7.47;;
22965;SDS011;11649;48.090;9.754;2024-01-30T00:59:19;13.82;;;7.53;;
22965;SDS011;11649;48.090;9.754;2024-01-30T01:01:46;12.85;;;7.90;;
22965;SDS011;11649;48.090;9.754;2024-01-30T01:04:13;14.68;;;7.43;;
22965;SDS011;11649;48.090;9.754;2024-01-30T01:06:40;14.32;;;7.47;;
22965;SDS011;11649;48.090;9.754;2024-01-30T01:09:11;13.65;;;7.90;;
22965;SDS011;11649;48.090;9.754;2024-01-30T01:11:38;14.38;;;7.75;;
22965;SDS011;11649;48.090;9.754;2024-01-30T01:14:05;15.35;;;7.78;;
22965;SDS011;11649;48.090;9.754;2024-01-30T01:16:32;14.55;;;7.90;;
22965;SDS011;11649;48.090;9.754;2024-01-30T01:18:59;14.55;;;7.70;;
22965;SDS011;11649;48.090;9.754;2024-01-30T01:21:27;14.57;;;7.78;;
22965;SDS011;11649;48.090;9.754;2024-01-30T01:23:54;13.38;;;7.82;;
22965;SDS011;11649;48.090;9.754;2024-01-30T01:26:21;15.18;;;7.35;;
22965;SDS011;11649;48.090;9.754;2024-01-30T01:28:48;15.35;;;7.45;;
22965;SDS011;11649;48.090;9.754;2024-01-30T01:31:14;12.57;;;7.68;;
22965;SDS011;11649;48.090;9.754;2024-01-30T01:33:42;13.40;;;7.38;;
22965;SDS011;11649;48.090;9.754;2024-01-30T01:36:09;11.27;;;7.15;;
22965;SDS011;11649;48.090;9.754;2024-01-30T01:38:35;14.65;;;7.15;;
22965;SDS011;11649;48.090;9.754;2024-01-30T01:41:02;14.93;;;7.45;;
22965;SDS011;11649;48.090;9.754;2024-01-30T01:43:29;10.80;;;6.55;;
22965;SDS011;11649;48.090;9.754;2024-01-30T01:45:56;12.68;;;7.35;;
22965;SDS011;11649;48.090;9.754;2024-01-30T01:48:23;13.15;;;7.47;;
22965;SDS011;11649;48.090;9.754;2024-01-30T01:50:50;11.43;;;6.97;;
22965;SDS011;11649;48.090;9.754;2024-01-30T01:53:18;12.80;;;7.53;;
22965;SDS011;11649;48.090;9.754;2024-01-30T01:55:46;16.58;;;8.30;;
22965;SDS011;11649;48.090;9.754;2024-01-30T01:58:14;15.82;;;9.00;;
22965;SDS011;11649;48.090;9.754;2024-01-30T02:00:42;19.73;;;8.85;;
22965;SDS011;11649;48.090;9.754;2024-01-30T02:03:10;15.65;;;9.55;;
22965;SDS011;11649;48.090;9.754;2024-01-30T02:05:38;16.55;;;8.80;;
22965;SDS011;11649;48.090;9.754;2024-01-30T02:08:07;17.02;;;9.27;;
22965;SDS011;11649;48.090;9.754;2024-01-30T02:10:35;15.52;;;9.02;;
22965;SDS011;11649;48.090;9.754;2024-01-30T02:13:02;14.80;;;8.13;;
22965;SDS011;11649;48.090;9.754;2024-01-30T02:15:29;12.35;;;7.97;;
22965;SDS011;11649;48.090;9.754;2024-01-30T02:17:55;13.40;;;8.07;;
22965;SDS011;11649;48.090;9.754;2024-01-30T02:20:23;12.75;;;7.72;;
22965;SDS011;11649;48.090;9.754;2024-01-30T02:22:52;14.05;;;8.05;;
22965;SDS011;11649;48.090;9.754;2024-01-30T02:25:31;15.00;;;8.88;;
22965;SDS011;11649;48.090;9.754;2024-01-30T02:28:04;14.25;;;8.52;;
22965;SDS011;11649;48.090;9.754;2024-01-30T02:30:31;14.48;;;8.52;;
22965;SDS011;11649;48.090;9.754;2024-01-30T02:32:58;14.02;;;8.57;;
22965;SDS011;11649;48.090;9.754;2024-01-30T02:35:25;12.60;;;7.93;;
22965;SDS011;11649;48.090;9.754;2024-01-30T02:37:52;14.70;;;8.82;;
22965;SDS011;11649;48.090;9.754;2024-01-30T02:40:18;14.32;;;8.57;;
22965;SDS011;11649;48.090;9.754;2024-01-30T02:42:45;15.35;;;8.70;;
22965;SDS011;11649;48.090;9.754;2024-01-30T02:45:12;15.48;;;8.60;;
22965;SDS011;11649;48.090;9.754;2024-01-30T02:47:40;14.60;;;8.40;;
22965;SDS011;11649;48.090;9.754;2024-01-30T02:50:07;13.70;;;8.13;;
22965;SDS011;11649;48.090;9.754;2024-01-30T02:52:34;13.90;;;8.98;;
22965;SDS011;11649;48.090;9.754;2024-01-30T02:55:01;13.30;;;8.18;;
22965;SDS011;11649;48.090;9.754;2024-01-30T02:57:28;13.02;;;8.10;;
22965;SDS011;11649;48.090;9.754;2024-01-30T02:59:55;15.48;;;8.50;;
22965;SDS011;11649;48.090;9.754;2024-01-30T03:02:22;16.70;;;8.82;;
22965;SDS011;11649;48.090;9.754;2024-01-30T03:04:49;14.32;;;8.57;;
22965;SDS011;11649;48.090;9.754;2024-01-30T03:07:16;13.88;;;8.20;;
22965;SDS011;11649;48.090;9.754;2024-01-30T03:09:43;12.70;;;7.78;;
22965;SDS011;11649;48.090;9.754;2024-01-30T03:12:10;15.05;;;8.07;;
22965;SDS011;11649;48.090;9.754;2024-01-30T03:14:37;14.02;;;8.20;;
22965;SDS011;11649;48.090;9.754;2024-01-30T03:17:04;14.73;;;8.32;;
22965;SDS011;11649;48.090;9.754;2024-01-30T03:19:31;15.27;;;8.80;;
22965;SDS011;11649;48.090;9.754;2024-01-30T03:21:58;18.05;;;8.60;;
22965;SDS011;11649;48.090;9.754;2024-01-30T03:24:25;13.75;;;8.50;;
22965;SDS011;11649;48.090;9.754;2024-01-30T03:26:53;13.40;;;8.18;;
22965;SDS011;11649;48.090;9.754;2024-01-30T03:29:20;13.90;;;8.32;;
22965;SDS011;11649;48.090;9.754;2024-01-30T03:31:46;15.95;;;8.85;;
22965;SDS011;11649;48.090;9.754;2024-01-30T03:34:13;13.73;;;8.30;;
22965;SDS011;11649;48.090;9.754;2024-01-30T03:36:40;14.00;;;7.97;;
22965;SDS011;11649;48.090;9.754;2024-01-30T03:39:07;14.23;;;8.30;;
22965;SDS011;11649;48.090;9.754;2024-01-30T03:41:34;14.02;;;8.10;;
22965;SDS011;11649;48.090;9.754;2024-01-30T03:44:01;12.20;;;7.45;;
22965;SDS011;11649;48.090;9.754;2024-01-30T03:46:28;17.60;;;8.57;;
22965;SDS011;11649;48.090;9.754;2024-01-30T03:48:55;13.10;;;8.10;;
22965;SDS011;11649;48.090;9.754;2024-01-30T03:51:21;13.65;;;8.45;;
22965;SDS011;11649;48.090;9.754;2024-01-30T03:53:48;11.93;;;8.10;;
22965;SDS011;11649;48.090;9.754;2024-01-30T03:56:15;14.35;;;8.30;;
22965;SDS011;11649;48.090;9.754;2024-01-30T03:58:42;12.75;;;7.90;;
22965;SDS011;11649;48.090;9.754;2024-01-30T04:01:12;14.05;;;8.43;;
22965;SDS011;11649;48.090;9.754;2024-01-30T04:03:40;11.90;;;7.63;;
22965;SDS011;11649;48.090;9.754;2024-01-30T04:06:07;13.65;;;7.65;;
22965;SDS011;11649;48.090;9.754;2024-01-30T04:08:34;13.65;;;7.95;;
22965;SDS011;11649;48.090;9.754;2024-01-30T04:11:04;13.55;;;7.88;;
22965;SDS011;11649;48.090;9.754;2024-01-30T04:13:32;14.13;;;7.90;;
22965;SDS011;11649;48.090;9.754;2024-01-30T04:16:00;12.82;;;7.55;;
22965;SDS011;11649;48.090;9.754;2024-01-30T04:18:30;13.77;;;7.78;;
22965;SDS011;11649;48.090;9.754;2024-01-30T04:20:56;14.25;;;8.07;;
22965;SDS011;11649;48.090;9.754;2024-01-30T04:23:23;15.45;;;7.72;;
22965;SDS011;11649;48.090;9.754;2024-01-30T04:25:50;11.43;;;7.43;;
22965;SDS011;11649;48.090;9.754;2024-01-30T04:28:17;11.13;;;6.85;;
22965;SDS011;11649;48.090;9.754;2024-01-30T04:30:44;14.75;;;7.55;;
22965;SDS011;11649;48.090;9.754;2024-01-30T04:33:11;13.60;;;7.43;;
22965;SDS011;11649;48.090;9.754;2024-01-30T04:35:38;13.07;;;7.68;;
22965;SDS011;11649;48.090;9.754;2024-01-30T04:38:05;12.20;;;7.97;;
22965;SDS011;11649;48.090;9.754;2024-01-30T04:40:31;12.23;;;7.43;;
22965;SDS011;11649;48.090;9.754;2024-01-30T04:42:58;12.10;;;7.18;;
22965;SDS011;11649;48.090;9.754;2024-01-30T04:45:25;13.43;;;7.82;;
22965;SDS011;11649;48.090;9.754;2024-01-30T04:47:52;14.75;;;8.20;;
22965;SDS011;11649;48.090;9.754;2024-01-30T04:50:18;11.60;;;6.88;;
22965;SDS011;11649;48.090;9.754;2024-01-30T04:52:45;10.68;;;6.90;;
22965;SDS011;11649;48.090;9.754;2024-01-30T04:55:12;12.50;;;7.50;;
22965;SDS011;11649;48.090;9.754;2024-01-30T04:57:39;11.48;;;6.78;;
22965;SDS011;11649;48.090;9.754;2024-01-30T05:00:06;10.50;;;6.53;;
22965;SDS011;11649;48.090;9.754;2024-01-30T05:02:33;10.90;;;7.07;;
22965;SDS011;11649;48.090;9.754;2024-01-30T05:05:00;12.60;;;7.07;;
22965;SDS011;11649;48.090;9.754;2024-01-30T05:07:27;10.45;;;6.88;;
22965;SDS011;11649;48.090;9.754;2024-01-30T05:09:54;12.82;;;7.22;;
22965;SDS011;11649;48.090;9.754;2024-01-30T05:12:24;12.20;;;7.35;;
22965;SDS011;11649;48.090;9.754;2024-01-30T05:14:51;12.82;;;7.97;;
22965;SDS011;11649;48.090;9.754;2024-01-30T05:17:18;11.48;;;7.47;;
22965;SDS011;11649;48.090;9.754;2024-01-30T05:19:45;12.18;;;7.38;;
22965;SDS011;11649;48.090;9.754;2024-01-30T05:22:12;11.70;;;6.95;;
22965;SDS011;11649;48.090;9.754;2024-01-30T05:24:42;11.40;;;6.85;;
22965;SDS011;11649;48.090;9.754;2024-01-30T05:27:09;10.75;;;6.70;;
22965;SDS011;11649;48.090;9.754;2024-01-30T05:29:36;10.90;;;6.60;;
22965;SDS011;11649;48.090;9.754;2024-01-30T05:32:03;12.23;;;7.30;;
22965;SDS011;11649;48.090;9.754;2024-01-30T05:34:31;12.48;;;7.32;;
22965;SDS011;11649;48.090;9.754;2024-01-30T05:36:58;11.98;;;7.00;;
22965;SDS011;11649;48.090;9.754;2024-01-30T05:39:25;11.05;;;6.72;;
22965;SDS011;11649;48.090;9.754;2024-01-30T05:41:52;13.60;;;7.32;;
22965;SDS011;11649;48.090;9.754;2024-01-30T05:44:19;12.23;;;7.07;;
22965;SDS011;11649;48.090;9.754;2024-01-30T05:46:45;12.35;;;7.55;;
22965;SDS011;11649;48.090;9.754;2024-01-30T05:49:12;13.10;;;7.85;;
22965;SDS011;11649;48.090;9.754;2024-01-30T05:51:39;11.07;;;6.97;;
22965;SDS011;11649;48.090;9.754;2024-01-30T05:54:06;13.40;;;7.68;;
22965;SDS011;11649;48.090;9.754;2024-01-30T05:56:32;10.07;;;6.45;;
22965;SDS011;11649;48.090;9.754;2024-01-30T05:58:59;13.95;;;7.88;;
22965;SDS011;11649;48.090;9.754;2024-01-30T06:01:26;15.32;;;8.80;;
22965;SDS011;11649;48.090;9.754;2024-01-30T06:03:53;13.05;;;8.05;;
22965;SDS011;11649;48.090;9.754;2024-01-30T06:06:20;13.63;;;7.20;;
22965;SDS011;11649;48.090;9.754;2024-01-30T06:08:47;11.55;;;7.15;;
22965;SDS011;11649;48.090;9.754;2024-01-30T06:11:13;17.13;;;10.15;;
22965;SDS011;11649;48.090;9.754;2024-01-30T06:13:40;11.43;;;7.57;;
22965;SDS011;11649;48.090;9.754;2024-01-30T06:16:10;12.95;;;8.13;;
22965;SDS011;11649;48.090;9.754;2024-01-30T06:18:40;17.40;;;8.35;;
22965;SDS011;11649;48.090;9.754;2024-01-30T06:21:07;17.00;;;8.73;;
22965;SDS011;11649;48.090;9.754;2024-01-30T06:23:37;14.45;;;8.38;;
22965;SDS011;11649;48.090;9.754;2024-01-30T06:26:04;17.98;;;8.50;;
22965;SDS011;11649;48.090;9.754;2024-01-30T06:28:32;13.50;;;7.60;;
22965;SDS011;11649;48.090;9.754;2024-01-30T06:31:00;15.02;;;8.05;;
22965;SDS011;11649;48.090;9.754;2024-01-30T06:33:28;13.43;;;7.90;;
22965;SDS011;11649;48.090;9.754;2024-01-30T06:35:55;13.65;;;8.10;;
22965;SDS011;11649;48.090;9.754;2024-01-30T06:38:21;15.25;;;8.52;;
22965;SDS011;11649;48.090;9.754;2024-01-30T06:40:48;14.38;;;7.93;;
22965;SDS011;11649;48.090;9.754;2024-01-30T06:43:15;14.60;;;8.70;;
22965;SDS011;11649;48.090;9.754;2024-01-30T06:45:41;16.17;;;8.80;;
22965;SDS011;11649;48.090;9.754;2024-01-30T06:48:09;16.27;;;8.25;;
22965;SDS011;11649;48.090;9.754;2024-01-30T06:50:36;16.92;;;8.52;;
22965;SDS011;11649;48.090;9.754;2024-01-30T06:53:03;14.52;;;8.75;;
22965;SDS011;11649;48.090;9.754;2024-01-30T06:55:30;18.67;;;10.25;;
22965;SDS011;11649;48.090;9.754;2024-01-30T06:57:57;18.23;;;9.20;;
22965;SDS011;11649;48.090;9.754;2024-01-30T07:00:24;15.68;;;8.07;;
22965;SDS011;11649;48.090;9.754;2024-01-30T07:02:51;13.90;;;8.43;;
22965;SDS011;11649;48.090;9.754;2024-01-30T07:05:17;15.48;;;9.27;;
22965;SDS011;11649;48.090;9.754;2024-01-30T07:07:44;16.05;;;9.20;;
22965;SDS011;11649;48.090;9.754;2024-01-30T07:10:11;26.42;;;15.05;;
22965;SDS011;11649;48.090;9.754;2024-01-30T07:12:38;18.40;;;11.25;;
22965;SDS011;11649;48.090;9.754;2024-01-30T07:15:05;17.60;;;10.20;;
22965;SDS011;11649;48.090;9.754;2024-01-30T07:17:35;16.45;;;9.50;;
22965;SDS011;11649;48.090;9.754;2024-01-30T07:20:02;20.70;;;10.73;;
22965;SDS011;11649;48.090;9.754;2024-01-30T07:22:30;16.15;;;9.73;;
22965;SDS011;11649;48.090;9.754;2024-01-30T07:24:57;17.00;;;9.05;;
22965;SDS011;11649;48.090;9.754;2024-01-30T07:27:24;16.02;;;9.07;;
22965;SDS011;11649;48.090;9.754;2024-01-30T07:29:51;15.48;;;8.95;;
22965;SDS011;11649;48.090;9.754;2024-01-30T07:32:18;15.88;;;8.13;;
22965;SDS011;11649;48.090;9.754;2024-01-30T07:34:45;14.27;;;8.45;;
22965;SDS011;11649;48.090;9.754;2024-01-30T07:37:31;15.65;;;8.95;;
22965;SDS011;11649;48.090;9.754;2024-01-30T07:39:58;13.82;;;8.85;;
22965;SDS011;11649;48.090;9.754;2024-01-30T07:42:25;14.90;;;7.57;;
22965;SDS011;11649;48.090;9.754;2024-01-30T07:44:51;17.25;;;8.48;;
22965;SDS011;11649;48.090;9.754;2024-01-30T07:47:18;14.00;;;8.50;;
22965;SDS011;11649;48.090;9.754;2024-01-30T07:49:45;12.88;;;8.38;;
22965;SDS011;11649;48.090;9.754;2024-01-30T07:52:12;14.85;;;8.93;;
22965;SDS011;11649;48.090;9.754;2024-01-30T07:54:39;14.45;;;8.55;;
22965;SDS011;11649;48.090;9.754;2024-01-30T07:57:05;15.73;;;9.27;;
22965;SDS011;11649;48.090;9.754;2024-01-30T07:59:32;14.60;;;8.80;;
22965;SDS011;11649;48.090;9.754;2024-01-30T08:01:59;13.60;;;8.40;;
22965;SDS011;11649;48.090;9.754;2024-01-30T08:04:26;11.85;;;8.10;;
22965;SDS011;11649;48.090;9.754;2024-01-30T08:06:53;19.15;;;11.63;;
22965;SDS011;11649;48.090;9.754;2024-01-30T08:09:20;23.02;;;14.93;;
22965;SDS011;11649;48.090;9.754;2024-01-30T08:11:46;15.35;;;10.60;;
22965;SDS011;11649;48.090;9.754;2024-01-30T08:14:13;19.52;;;12.43;;
22965;SDS011;11649;48.090;9.754;2024-01-30T08:16:40;19.15;;;11.52;;
22965;SDS011;11649;48.090;9.754;2024-01-30T08:19:07;15.18;;;9.70;;
22965;SDS011;11649;48.090;9.754;2024-01-30T08:21:34;17.45;;;10.30;;
22965;SDS011;11649;48.090;9.754;2024-01-30T08:24:05;16.77;;;8.73;;
22965;SDS011;11649;48.090;9.754;2024-01-30T08:26:33;15.68;;;9.43;;
22965;SDS011;11649;48.090;9.754;2024-01-30T08:29:00;13.02;;;8.40;;
22965;SDS011;11649;48.090;9.754;2024-01-30T08:31:28;11.70;;;7.82;;
22965;SDS011;11649;48.090;9.754;2024-01-30T08:33:55;14.20;;;8.63;;
22965;SDS011;11649;48.090;9.754;2024-01-30T08:36:22;13.27;;;7.85;;
22965;SDS011;11649;48.090;9.754;2024-01-30T08:38:48;15.57;;;7.32;;
22965;SDS011;11649;48.090;9.754;2024-01-30T08:41:15;12.60;;;6.72;;
22965;SDS011;11649;48.090;9.754;2024-01-30T08:43:42;11.73;;;6.75;;
22965;SDS011;11649;48.090;9.754;2024-01-30T08:46:11;8.48;;;5.72;;
22965;SDS011;11649;48.090;9.754;2024-01-30T08:48:38;7.95;;;5.55;;
22965;SDS011;11649;48.090;9.754;2024-01-30T08:51:04;9.27;;;6.15;;
22965;SDS011;11649;48.090;9.754;2024-01-30T08:53:34;10.60;;;6.97;;
22965;SDS011;11649;48.090;9.754;2024-01-30T08:56:02;11.00;;;7.40;;
22965;SDS011;11649;48.090;9.754;2024-01-30T08:58:29;10.05;;;6.45;;
22965;SDS011;11649;48.090;9.754;2024-01-30T09:00:56;9.85;;;5.93;;
22965;SDS011;11649;48.090;9.754;2024-01-30T09:03:24;8.85;;;5.88;;
22965;SDS011;11649;48.090;9.754;2024-01-30T09:05:51;11.73;;;6.80;;
22965;SDS011;11649;48.090;9.754;2024-01-30T09:08:18;14.25;;;7.30;;
22965;SDS011;11649;48.090;9.754;2024-01-30T09:10:45;11.25;;;7.45;;
22965;SDS011;11649;48.090;9.754;2024-01-30T09:13:12;13.52;;;7.55;;
22965;SDS011;11649;48.090;9.754;2024-01-30T09:15:39;10.65;;;6.90;;
22965;SDS011;11649;48.090;9.754;2024-01-30T09:18:06;7.93;;;5.60;;
22965;SDS011;11649;48.090;9.754;2024-01-30T09:20:33;14.25;;;6.10;;
22965;SDS011;11649;48.090;9.754;2024-01-30T09:23:00;10.10;;;6.13;;
22965;SDS011;11649;48.090;9.754;2024-01-30T09:25:27;9.50;;;5.65;;
22965;SDS011;11649;48.090;9.754;2024-01-30T09:27:54;10.73;;;6.55;;
22965;SDS011;11649;48.090;9.754;2024-01-30T09:30:21;12.38;;;6.60;;
22965;SDS011;11649;48.090;9.754;2024-01-30T09:32:48;11.63;;;6.13;;
22965;SDS011;11649;48.090;9.754;2024-01-30T09:35:14;8.40;;;5.70;;
22965;SDS011;11649;48.090;9.754;2024-01-30T09:37:42;9.02;;;6.30;;
22965;SDS011;11649;48.090;9.754;2024-01-30T09:40:09;14.23;;;6.72;;
22965;SDS011;11649;48.090;9.754;2024-01-30T09:42:36;9.88;;;6.30;;
22965;SDS011;11649;48.090;9.754;2024-01-30T09:45:03;9.60;;;6.13;;
22965;SDS011;11649;48.090;9.754;2024-01-30T09:47:32;11.52;;;6.00;;
22965;SDS011;11649;48.090;9.754;2024-01-30T09:52:33;14.93;;;6.00;;
22965;SDS011;11649;48.090;9.754;2024-01-30T09:55:00;9.52;;;5.70;;
22965;SDS011;11649;48.090;9.754;2024-01-30T09:57:27;8.40;;;6.00;;
22965;SDS011;11649;48.090;9.754;2024-01-30T09:59:54;8.88;;;5.70;;
22965;SDS011;11649;48.090;9.754;2024-01-30T10:02:21;8.15;;;6.15;;
22965;SDS011;11649;48.090;9.754;2024-01-30T10:04:49;9.80;;;6.22;;
22965;SDS011;11649;48.090;9.754;2024-01-30T10:07:17;9.10;;;5.88;;
22965;SDS011;11649;48.090;9.754;2024-01-30T10:09:45;9.43;;;6.15;;
22965;SDS011;11649;48.090;9.754;2024-01-30T10:12:12;34.70;;;11.75;;
22965;SDS011;11649;48.090;9.754;2024-01-30T10:14:39;13.73;;;7.15;;
22965;SDS011;11649;48.090;9.754;2024-01-30T10:17:10;10.07;;;6.20;;
22965;SDS011;11649;48.090;9.754;2024-01-30T10:19:49;12.32;;;8.20;;
22965;SDS011;11649;48.090;9.754;2024-01-30T10:22:18;11.25;;;6.78;;
22965;SDS011;11649;48.090;9.754;2024-01-30T10:24:45;11.07;;;6.25;;
22965;SDS011;11649;48.090;9.754;2024-01-30T10:27:12;10.93;;;7.03;;
22965;SDS011;11649;48.090;9.754;2024-01-30T10:29:39;13.15;;;8.20;;
22965;SDS011;11649;48.090;9.754;2024-01-30T10:32:06;11.57;;;7.65;;
22965;SDS011;11649;48.090;9.754;2024-01-30T10:34:33;10.85;;;7.43;;
22965;SDS011;11649;48.090;9.754;2024-01-30T10:37:07;13.35;;;7.32;;
22965;SDS011;11649;48.090;9.754;2024-01-30T10:39:43;12.30;;;8.02;;
22965;SDS011;11649;48.090;9.754;2024-01-30T10:42:12;12.55;;;7.75;;
22965;SDS011;11649;48.090;9.754;2024-01-30T10:45:05;11.73;;;7.13;;
22965;SDS011;11649;48.090;9.754;2024-01-30T10:47:35;11.57;;;7.28;;
22965;SDS011;11649;48.090;9.754;2024-01-30T10:50:03;10.27;;;7.40;;
22965;SDS011;11649;48.090;9.754;2024-01-30T10:52:30;10.85;;;7.07;;
22965;SDS011;11649;48.090;9.754;2024-01-30T10:54:58;12.73;;;7.93;;
22965;SDS011;11649;48.090;9.754;2024-01-30T10:57:26;10.63;;;7.60;;
22965;SDS011;11649;48.090;9.754;2024-01-30T10:59:55;11.88;;;7.82;;
22965;SDS011;11649;48.090;9.754;2024-01-30T11:02:26;11.95;;;7.28;;
22965;SDS011;11649;48.090;9.754;2024-01-30T11:04:57;10.73;;;7.60;;
22965;SDS011;11649;48.090;9.754;2024-01-30T11:07:26;12.48;;;8.10;;
22965;SDS011;11649;48.090;9.754;2024-01-30T11:12:30;10.82;;;7.82;;
22965;SDS011;11649;48.090;9.754;2024-01-30T11:15:01;12.00;;;7.63;;
22965;SDS011;11649;48.090;9.754;2024-01-30T11:22:50;11.13;;;7.90;;
22965;SDS011;11649;48.090;9.754;2024-01-30T11:25:22;12.30;;;7.85;;
22965;SDS011;11649;48.090;9.754;2024-01-30T11:27:53;10.68;;;7.70;;
22965;SDS011;11649;48.090;9.754;2024-01-30T11:30:24;12.10;;;8.02;;
22965;SDS011;11649;48.090;9.754;2024-01-30T11:33:02;17.48;;;9.85;;
22965;SDS011;11649;48.090;9.754;2024-01-30T11:35:37;23.65;;;11.88;;
22965;SDS011;11649;48.090;9.754;2024-01-30T11:38:09;13.80;;;8.48;;
22965;SDS011;11649;48.090;9.754;2024-01-30T11:40:37;11.55;;;7.82;;
22965;SDS011;11649;48.090;9.754;2024-01-30T11:43:06;11.15;;;7.32;;
22965;SDS011;11649;48.090;9.754;2024-01-30T11:45:34;16.20;;;8.55;;
22965;SDS011;11649;48.090;9.754;2024-01-30T11:48:02;12.20;;;7.78;;
22965;SDS011;11649;48.090;9.754;2024-01-30T11:50:32;15.48;;;8.68;;
22965;SDS011;11649;48.090;9.754;2024-01-30T11:52:59;13.68;;;8.40;;
22965;SDS011;11649;48.090;9.754;2024-01-30T11:55:26;10.80;;;7.45;;
22965;SDS011;11649;48.090;9.754;2024-01-30T11:57:59;11.15;;;7.80;;
22965;SDS011;11649;48.090;9.754;2024-01-30T12:00:26;11.13;;;7.97;;
22965;SDS011;11649;48.090;9.754;2024-01-30T12:02:54;11.85;;;7.85;;
22965;SDS011;11649;48.090;9.754;2024-01-30T12:05:25;11.13;;;7.95;;
22965;SDS011;11649;48.090;9.754;2024-01-30T12:07:53;13.70;;;8.90;;
22965;SDS011;11649;48.090;9.754;2024-01-30T12:10:21;13.82;;;7.95;;
22965;SDS011;11649;48.090;9.754;2024-01-30T12:12:49;14.13;;;8.82;;
22965;SDS011;11649;48.090;9.754;2024-01-30T12:15:17;12.50;;;8.48;;
22965;SDS011;11649;48.090;9.754;2024-01-30T12:17:47;14.38;;;8.90;;
22965;SDS011;11649;48.090;9.754;2024-01-30T12:20:15;15.02;;;8.65;;
22965;SDS011;11649;48.090;9.754;2024-01-30T12:22:48;15.60;;;9.13;;
22965;SDS011;11649;48.090;9.754;2024-01-30T12:25:16;12.55;;;9.07;;
22965;SDS011;11649;48.090;9.754;2024-01-30T12:27:45;12.93;;;9.20;;
22965;SDS011;11649;48.090;9.754;2024-01-30T12:30:17;13.77;;;9.50;;
22965;SDS011;11649;48.090;9.754;2024-01-30T12:32:45;14.57;;;9.90;;
22965;SDS011;11649;48.090;9.754;2024-01-30T12:35:14;16.85;;;10.55;;
22965;SDS011;11649;48.090;9.754;2024-01-30T12:37:43;14.45;;;9.90;;
22965;SDS011;11649;48.090;9.754;2024-01-30T12:40:11;16.08;;;9.23;;
22965;SDS011;11649;48.090;9.754;2024-01-30T12:42:41;14.23;;;9.13;;
22965;SDS011;11649;48.090;9.754;2024-01-30T12:45:09;14.13;;;9.40;;
22965;SDS011;11649;48.090;9.754;2024-01-30T12:47:36;12.45;;;8.80;;
22965;SDS011;11649;48.090;9.754;2024-01-30T12:50:03;13.32;;;8.85;;
22965;SDS011;11649;48.090;9.754;2024-01-30T12:52:31;13.90;;;8.48;;
22965;SDS011;11649;48.090;9.754;2024-01-30T12:54:58;13.63;;;8.88;;
22965;SDS011;11649;48.090;9.754;2024-01-30T12:57:25;13.40;;;9.05;;
22965;SDS011;11649;48.090;9.754;2024-01-30T12:59:52;14.88;;;8.82;;
22965;SDS011;11649;48.090;9.754;2024-01-30T13:02:19;14.50;;;9.00;;
22965;SDS011;11649;48.090;9.754;2024-01-30T13:04:46;15.10;;;9.23;;
22965;SDS011;11649;48.090;9.754;2024-01-30T13:07:15;12.82;;;8.55;;
22965;SDS011;11649;48.090;9.754;2024-01-30T13:09:42;15.77;;;8.65;;
22965;SDS011;11649;48.090;9.754;2024-01-30T13:12:10;15.70;;;8.82;;
22965;SDS011;11649;48.090;9.754;2024-01-30T13:14:37;13.02;;;7.95;;
22965;SDS011;11649;48.090;9.754;2024-01-30T13:17:03;12.88;;;9.07;;
22965;SDS011;11649;48.090;9.754;2024-01-30T13:19:30;13.35;;;9.80;;
22965;SDS011;11649;48.090;9.754;2024-01-30T13:21:57;21.50;;;13.30;;
22965;SDS011;11649;48.090;9.754;2024-01-30T13:24:24;12.70;;;8.98;;
22965;SDS011;11649;48.090;9.754;2024-01-30T13:26:51;11.77;;;8.60;;
22965;SDS011;11649;48.090;9.754;2024-01-30T13:29:18;11.80;;;8.23;;
22965;SDS011;11649;48.090;9.754;2024-01-30T13:31:45;11.43;;;8.43;;
22965;SDS011;11649;48.090;9.754;2024-01-30T13:34:13;12.15;;;8.55;;
22965;SDS011;11649;48.090;9.754;2024-01-30T13:36:40;11.98;;;8.75;;
22965;SDS011;11649;48.090;9.754;2024-01-30T13:39:07;13.63;;;8.88;;
22965;SDS011;11649;48.090;9.754;2024-01-30T13:41:36;12.75;;;8.68;;
22965;SDS011;11649;48.090;9.754;2024-01-30T13:44:04;11.85;;;8.27;;
22965;SDS011;11649;48.090;9.754;2024-01-30T13:46:31;13.73;;;8.68;;
22965;SDS011;11649;48.090;9.754;2024-01-30T13:48:58;16.50;;;8.15;;
22965;SDS011;11649;48.090;9.754;2024-01-30T13:51:26;11.60;;;8.05;;
22965;SDS011;11649;48.090;9.754;2024-01-30T13:53:53;15.23;;;8.10;;
22965;SDS011;11649;48.090;9.754;2024-01-30T13:56:20;11.63;;;8.50;;
22965;SDS011;11649;48.090;9.754;2024-01-30T13:58:50;11.75;;;8.50;;
22965;SDS011;11649;48.090;9.754;2024-01-30T14:01:17;12.90;;;8.57;;
22965;SDS011;11649;48.090;9.754;2024-01-30T14:03:44;14.27;;;8.75;;
22965;SDS011;11649;48.090;9.754;2024-01-30T14:06:11;12.40;;;8.15;;
22965;SDS011;11649;48.090;9.754;2024-01-30T14:08:39;12.00;;;8.30;;
22965;SDS011;11649;48.090;9.754;2024-01-30T14:11:08;12.00;;;8.15;;
22965;SDS011;11649;48.090;9.754;2024-01-30T14:13:36;14.60;;;8.00;;
22965;SDS011;11649;48.090;9.754;2024-01-30T14:16:02;10.75;;;7.72;;
22965;SDS011;11649;48.090;9.754;2024-01-30T14:18:32;12.75;;;8.25;;
22965;SDS011;11649;48.090;9.754;2024-01-30T14:20:59;11.73;;;8.50;;
22965;SDS011;11649;48.090;9.754;2024-01-30T14:23:26;12.80;;;8.38;;
22965;SDS011;11649;48.090;9.754;2024-01-30T14:25:52;12.68;;;8.63;;
22965;SDS011;11649;48.090;9.754;2024-01-30T14:28:19;13.00;;;8.57;;
22965;SDS011;11649;48.090;9.754;2024-01-30T14:30:46;12.52;;;8.82;;
22965;SDS011;11649;48.090;9.754;2024-01-30T14:33:13;13.48;;;8.88;;
22965;SDS011;11649;48.090;9.754;2024-01-30T14:35:40;11.23;;;7.85;;
22965;SDS011;11649;48.090;9.754;2024-01-30T14:38:07;11.45;;;8.10;;
22965;SDS011;11649;48.090;9.754;2024-01-30T14:40:34;15.45;;;8.30;;
22965;SDS011;11649;48.090;9.754;2024-01-30T14:43:01;13.70;;;8.23;;
22965;SDS011;11649;48.090;9.754;2024-01-30T14:45:29;11.75;;;7.95;;
22965;SDS011;11649;48.090;9.754;2024-01-30T14:47:58;11.85;;;7.78;;